Time;durP1;ratioP1;P1;durP2;ratioP2;P2;SDS_P1;SDS_P2;PMS_P1;PMS_P2;Temp;Humidity;BMP_temperature;BMP_pressure;BME280_temperature;BME280_humidity;BME280_pressure;Samples;Min_cycle;Max_cycle;Signal;HPM_P1;HPM_P2
2024/01/13 00:01:03;;;;;;;8.15;3.42;;;;;;;1.67;100.00;101697.28;5074822;28;20053;-68
2024/01/13 00:03:30;;;;;;;8.20;3.00;;;;;;;1.60;100.00;101681.72;5070842;28;20093;-68
2024/01/13 00:05:57;;;;;;;7.45;2.80;;;;;;;1.60;100.00;101650.72;5071361;28;20048;-68
2024/01/13 00:08:24;;;;;;;5.75;2.30;;;;;;;1.71;100.00;101664.66;5070329;28;20059;-68
2024/01/13 00:11:02;;;;;;;7.05;2.33;;;;;;;1.91;100.00;101657.16;5065470;28;20049;-68
2024/01/13 00:13:29;;;;;;;4.45;1.55;;;;;;;2.05;100.00;101654.75;5075391;28;20529;-68
2024/01/13 00:15:56;;;;;;;4.35;1.50;;;;;;;2.26;100.00;101642.06;5078698;28;20056;-68
2024/01/13 00:18:23;;;;;;;3.40;1.60;;;;;;;2.59;100.00;101627.78;5069967;28;20822;-68
2024/01/13 00:21:04;;;;;;;4.45;1.42;;;;;;;2.71;100.00;101627.03;5070956;28;20060;-68
2024/01/13 00:23:31;;;;;;;2.63;1.20;;;;;;;2.89;100.00;101620.28;5078131;28;20466;-68
2024/01/13 00:25:58;;;;;;;3.10;1.42;;;;;;;2.86;100.00;101615.94;5070620;28;20129;-68
2024/01/13 00:28:24;;;;;;;2.60;1.20;;;;;;;3.02;100.00;101622.97;5070241;28;20044;-68
2024/01/13 00:31:02;;;;;;;2.13;1.10;;;;;;;3.18;100.00;101629.13;5059685;28;20054;-68
2024/01/13 00:33:29;;;;;;;1.75;1.10;;;;;;;3.26;100.00;101633.47;5073028;28;20300;-68
2024/01/13 00:35:57;;;;;;;2.60;1.30;;;;;;;3.37;100.00;101621.50;5069951;28;20446;-68
2024/01/13 00:38:24;;;;;;;2.75;1.30;;;;;;;3.31;100.00;101619.75;5068539;28;20055;-68
2024/01/13 00:41:03;;;;;;;1.63;1.00;;;;;;;3.30;100.00;101607.66;5069787;28;20056;-69
2024/01/13 00:43:31;;;;;;;5.25;1.30;;;;;;;3.52;100.00;101629.34;5070463;28;20084;-68
2024/01/13 00:45:57;;;;;;;1.52;1.08;;;;;;;3.49;100.00;101625.88;5069661;28;20063;-69
2024/01/13 00:48:24;;;;;;;2.00;1.10;;;;;;;3.42;100.00;101612.91;5070057;28;20053;-68
2024/01/13 00:51:07;;;;;;;2.20;1.10;;;;;;;3.48;100.00;101618.97;5057250;28;20533;-69
2024/01/13 00:53:35;;;;;;;1.48;1.00;;;;;;;3.44;100.00;101606.88;5069242;28;20080;-68
2024/01/13 00:56:02;;;;;;;3.42;1.55;;;;;;;3.44;100.00;101612.06;5064685;28;20076;-68
2024/01/13 00:58:29;;;;;;;3.13;1.30;;;;;;;3.46;100.00;101608.59;5073070;28;20121;-68
2024/01/13 01:01:09;;;;;;;2.90;1.20;;;;;;;3.42;100.00;101604.28;5065710;28;20052;-68
2024/01/13 01:03:36;;;;;;;1.52;0.90;;;;;;;3.53;100.00;101600.00;5069268;28;20059;-69
2024/01/13 01:06:04;;;;;;;1.98;1.10;;;;;;;3.58;100.00;101615.59;5069198;28;20144;-68
2024/01/13 01:08:31;;;;;;;3.10;1.40;;;;;;;3.76;100.00;101617.41;5067468;28;20048;-68
2024/01/13 01:11:06;;;;;;;3.72;1.00;;;;;;;4.07;100.00;101601.97;5069611;28;20048;-69
2024/01/13 01:13:33;;;;;;;2.25;1.10;;;;;;;4.25;100.00;101603.72;5065790;28;20084;-68
2024/01/13 01:16:00;;;;;;;2.35;1.00;;;;;;;4.20;100.00;101611.53;5061753;28;20052;-68
2024/01/13 01:18:26;;;;;;;1.63;1.20;;;;;;;4.14;100.00;101580.38;5068412;28;20497;-68
2024/01/13 01:21:10;;;;;;;1.10;1.00;;;;;;;4.25;100.00;101599.44;5068612;28;20053;-68
2024/01/13 01:23:38;;;;;;;1.63;1.08;;;;;;;4.34;100.00;101606.38;5069695;28;20070;-68
2024/01/13 01:26:05;;;;;;;1.60;1.00;;;;;;;4.38;100.00;101592.53;5059140;28;20049;-68
2024/01/13 01:28:32;;;;;;;1.60;1.00;;;;;;;4.42;100.00;101591.66;5056314;28;20051;-68
2024/01/13 01:31:05;;;;;;;1.17;0.98;;;;;;;4.54;100.00;101583.91;5069267;28;20060;-68
2024/01/13 01:33:33;;;;;;;1.85;1.10;;;;;;;4.82;100.00;101593.44;5068659;28;20052;-68
2024/01/13 01:36:01;;;;;;;1.85;1.00;;;;;;;5.04;100.00;101597.75;5068916;28;20060;-68
2024/01/13 01:38:28;;;;;;;3.25;1.20;;;;;;;5.01;100.00;101591.69;5067930;28;20044;-69
2024/01/13 01:41:09;;;;;;;1.50;1.00;;;;;;;5.29;100.00;101601.19;5068789;28;20083;-68
2024/01/13 01:43:36;;;;;;;1.48;1.00;;;;;;;5.39;100.00;101598.56;5068635;28;20400;-68
2024/01/13 01:46:04;;;;;;;1.08;0.90;;;;;;;5.60;100.00;101605.44;5068175;28;20052;-69
2024/01/13 01:48:37;;;;;;;1.30;1.00;;;;;;;5.74;100.00;101623.56;5068853;28;20051;-68
2024/01/13 01:51:10;;;;;;;1.30;0.90;;;;;;;5.58;100.00;101628.81;5055912;28;20076;-68
2024/01/13 01:53:38;;;;;;;1.00;0.90;;;;;;;5.76;100.00;101629.66;5069372;28;20441;-68
2024/01/13 01:56:10;;;;;;;1.73;1.00;;;;;;;5.82;100.00;101642.59;5054307;28;20048;-68
2024/01/13 01:58:38;;;;;;;1.00;0.90;;;;;;;5.98;100.00;101627.84;5060395;28;20055;-69
2024/01/13 02:01:07;;;;;;;1.33;0.90;;;;;;;5.89;100.00;101613.97;5078163;28;20533;-68
2024/01/13 02:03:34;;;;;;;3.55;0.90;;;;;;;5.85;100.00;101630.47;5073386;28;20205;-68
2024/01/13 02:06:02;;;;;;;1.17;0.95;;;;;;;5.95;100.00;101646.91;5073694;28;20076;-68
2024/01/13 02:08:29;;;;;;;2.38;1.30;;;;;;;5.86;100.00;101608.81;5059954;28;20055;-68
2024/01/13 02:11:06;;;;;;;1.98;1.15;;;;;;;6.13;100.00;101653.78;5073137;28;20047;-69
2024/01/13 02:13:33;;;;;;;1.80;1.00;;;;;;;6.05;100.00;101664.19;5078906;28;20170;-69
2024/01/13 02:16:00;;;;;;;2.08;1.02;;;;;;;6.16;100.00;101645.09;5074009;28;20054;-68
2024/01/13 02:18:27;;;;;;;2.53;1.10;;;;;;;6.18;100.00;101640.75;5072854;28;20410;-69
2024/01/13 02:21:05;;;;;;;2.75;1.20;;;;;;;6.22;100.00;101645.09;5072166;28;20041;-68
2024/01/13 02:23:33;;;;;;;5.75;1.52;;;;;;;6.02;100.00;101646.03;5073219;28;20371;-68
2024/01/13 02:26:00;;;;;;;10.90;1.60;;;;;;;5.92;100.00;101656.44;5071630;28;20057;-68
2024/01/13 02:28:27;;;;;;;7.57;1.60;;;;;;;6.08;100.00;101659.00;5071826;28;20481;-69
2024/01/13 02:31:10;;;;;;;4.57;1.95;;;;;;;6.19;100.00;101648.53;5063304;28;20040;-69
2024/01/13 02:33:37;;;;;;;8.00;1.77;;;;;;;6.06;100.00;101652.09;5104009;27;20249;-69
2024/01/13 02:36:05;;;;;;;8.52;1.80;;;;;;;6.10;100.00;101669.41;5072568;28;20052;-69
2024/01/13 02:38:31;;;;;;;10.27;1.50;;;;;;;6.14;100.00;101658.09;5072668;28;20065;-69
2024/01/13 02:41:04;;;;;;;6.47;1.40;;;;;;;6.16;100.00;101653.78;5072507;28;20454;-69
2024/01/13 02:43:32;;;;;;;8.82;1.80;;;;;;;5.86;100.00;101658.19;5072664;28;20045;-69
2024/01/13 02:45:59;;;;;;;10.20;2.10;;;;;;;5.96;100.00;101664.25;5072295;28;20466;-69
2024/01/13 02:48:32;;;;;;;6.35;2.15;;;;;;;6.03;100.00;101659.91;5072667;28;20127;-69
2024/01/13 02:51:09;;;;;;;8.27;1.77;;;;;;;6.03;100.00;101646.91;5072577;28;20044;-69
2024/01/13 02:53:36;;;;;;;10.15;1.95;;;;;;;5.98;100.00;101626.09;5072493;28;20136;-69
2024/01/13 02:56:03;;;;;;;10.35;2.75;;;;;;;5.87;100.00;101620.06;5070697;28;20048;-70
2024/01/13 02:58:30;;;;;;;9.75;1.83;;;;;;;5.96;100.00;101624.41;5074388;28;20044;-69
2024/01/13 03:01:09;;;;;;;15.88;2.17;;;;;;;5.82;100.00;101620.06;5068292;28;20044;-69
2024/01/13 03:03:37;;;;;;;13.73;1.80;;;;;;;5.88;100.00;101630.47;5072230;28;20052;-69
2024/01/13 03:06:05;;;;;;;8.80;1.95;;;;;;;6.06;100.00;101620.88;5062535;28;20049;-69
2024/01/13 03:08:32;;;;;;;14.55;2.03;;;;;;;6.06;100.00;101606.16;5072578;28;20052;-69
2024/01/13 03:11:11;;;;;;;11.82;1.90;;;;;;;6.06;100.00;101610.50;5072147;28;20053;-69
2024/01/13 03:13:40;;;;;;;;;;;;;;;6.16;100.00;101601.78;5063419;28;20084;-69
2024/01/13 03:16:07;;;;;;;16.05;3.33;;;;;;;6.08;100.00;101591.41;5072259;28;20298;-69
2024/01/13 03:18:34;;;;;;;13.48;3.33;;;;;;;6.10;100.00;101593.13;5070738;28;20052;-69
2024/01/13 03:21:11;;;;;;;16.50;3.67;;;;;;;6.05;100.00;101591.41;5071535;28;20409;-69
2024/01/13 03:23:45;;;;;;;7.97;2.15;;;;;;;6.14;100.00;101561.88;5072371;28;20441;-69
2024/01/13 03:26:13;;;;;;;17.00;2.90;;;;;;;5.88;100.00;101570.69;5072790;28;20063;-69
2024/01/13 03:28:41;;;;;;;15.68;2.10;;;;;;;6.05;100.00;101574.94;5072867;28;20076;-69
2024/01/13 03:31:10;;;;;;;12.63;2.60;;;;;;;5.96;100.00;101555.06;5071818;28;20044;-69
2024/01/13 03:33:40;;;;;;;13.98;2.50;;;;;;;5.92;100.00;101555.94;5073392;28;20045;-69
2024/01/13 03:36:08;;;;;;;13.18;2.85;;;;;;;5.95;100.00;101555.03;5071202;28;20131;-69
2024/01/13 03:38:37;;;;;;;18.08;2.65;;;;;;;5.91;100.00;101562.00;5071453;28;20055;-69
2024/01/13 03:41:10;;;;;;;11.07;2.60;;;;;;;6.07;100.00;101542.00;5071371;28;20045;-69
2024/01/13 03:43:37;;;;;;;14.35;3.63;;;;;;;6.14;100.00;101554.09;5070941;28;20405;-69
2024/01/13 03:46:05;;;;;;;16.58;2.63;;;;;;;5.88;100.00;101556.81;5071905;28;20083;-69
2024/01/13 03:48:31;;;;;;;18.30;4.47;;;;;;;5.91;100.00;101546.38;5071329;28;20131;-69
2024/01/13 03:50:59;;;;;;;12.30;2.22;;;;;;;5.94;100.00;101551.59;5070889;28;20063;-69
2024/01/13 03:53:29;;;;;;;14.00;2.13;;;;;;;6.01;100.00;101542.06;5071379;28;20079;-69
2024/01/13 03:55:56;;;;;;;15.38;2.72;;;;;;;6.10;100.00;101547.19;5077959;28;20044;-69
2024/01/13 03:58:23;;;;;;;13.63;2.95;;;;;;;6.08;100.00;101549.78;5068611;28;20066;-69
2024/01/13 04:00:49;;;;;;;13.05;2.25;;;;;;;5.92;100.00;101542.94;5076664;28;20049;-69
2024/01/13 04:03:19;;;;;;;11.43;2.47;;;;;;;5.96;100.00;101539.47;5074917;28;20496;-69
2024/01/13 04:05:47;;;;;;;12.60;2.63;;;;;;;5.97;100.00;101525.59;5078331;28;20098;-69
2024/01/13 04:08:14;;;;;;;10.15;2.90;;;;;;;5.94;100.00;101542.94;5071125;28;20087;-69
2024/01/13 04:10:41;;;;;;;12.23;2.72;;;;;;;5.89;100.00;101528.19;5071154;28;20048;-69
2024/01/13 04:13:12;;;;;;;10.90;3.00;;;;;;;5.95;100.00;101544.63;5060330;28;20474;-68
2024/01/13 04:15:38;;;;;;;12.95;2.30;;;;;;;5.93;100.00;101541.19;5069061;28;20409;-69
2024/01/13 04:18:05;;;;;;;12.73;3.22;;;;;;;5.95;100.00;101531.63;5070701;28;20044;-69
2024/01/13 04:20:32;;;;;;;12.27;2.60;;;;;;;6.16;100.00;101541.09;5062729;28;20048;-69
2024/01/13 04:22:59;;;;;;;17.55;3.13;;;;;;;5.88;100.00;101534.28;5070438;28;20528;-69
2024/01/13 04:25:26;;;;;;;11.98;2.45;;;;;;;5.98;100.00;101518.66;5069154;28;20049;-69
2024/01/13 04:27:54;;;;;;;11.23;2.25;;;;;;;5.98;100.00;101513.47;5070426;28;20058;-69
2024/01/13 04:30:21;;;;;;;14.82;2.40;;;;;;;5.79;100.00;101518.75;5077764;28;20053;-69
2024/01/13 04:32:48;;;;;;;13.60;2.10;;;;;;;5.90;100.00;101500.50;5056784;28;20375;-69
2024/01/13 04:35:15;;;;;;;14.18;2.35;;;;;;;5.95;100.00;101505.66;5055097;28;20155;-69
2024/01/13 04:37:42;;;;;;;17.48;2.80;;;;;;;5.75;100.00;101510.97;5070131;28;20457;-69
2024/01/13 04:40:09;;;;;;;10.68;2.03;;;;;;;5.76;100.00;101497.13;5057194;28;20041;-68
2024/01/13 04:42:36;;;;;;;12.90;2.53;;;;;;;5.82;100.00;101499.66;5069824;28;20139;-68
2024/01/13 04:45:02;;;;;;;12.65;2.35;;;;;;;5.80;100.00;101507.47;5070287;28;20478;-68
2024/01/13 04:47:30;;;;;;;15.75;3.78;;;;;;;5.68;100.00;101508.41;5058159;28;20509;-69
2024/01/13 04:49:56;;;;;;;15.13;3.30;;;;;;;5.68;100.00;101517.91;5069987;28;20053;-69
2024/01/13 04:52:24;;;;;;;15.35;2.65;;;;;;;5.75;100.00;101506.63;5069651;28;20560;-69
2024/01/13 04:54:50;;;;;;;11.63;3.45;;;;;;;5.64;100.00;101491.09;5070562;28;20091;-69
2024/01/13 04:57:17;;;;;;;8.02;2.15;;;;;;;5.66;100.00;101491.09;5068715;28;20202;-69
2024/01/13 04:59:45;;;;;;;11.00;1.90;;;;;;;5.70;100.00;101506.66;5072289;28;20052;-69
2024/01/13 05:02:12;;;;;;;8.82;2.25;;;;;;;5.59;100.00;101503.25;5070072;28;20052;-69
2024/01/13 05:04:39;;;;;;;9.32;2.20;;;;;;;5.73;100.00;101515.31;5068350;28;20067;-69
2024/01/13 05:07:09;;;;;;;13.88;2.33;;;;;;;5.70;100.00;101521.38;5069924;28;20077;-70
2024/01/13 05:09:37;;;;;;;13.90;2.08;;;;;;;5.57;100.00;101504.97;5068254;28;20072;-69
2024/01/13 05:12:04;;;;;;;8.13;1.73;;;;;;;5.69;100.00;101517.91;5068829;28;20038;-69
2024/01/13 05:14:31;;;;;;;14.18;2.10;;;;;;;5.51;100.00;101518.88;5068935;28;20056;-69
2024/01/13 05:17:03;;;;;;;9.35;2.05;;;;;;;5.66;100.00;101530.06;5069555;28;20067;-69
2024/01/13 05:19:29;;;;;;;9.77;1.88;;;;;;;5.63;100.00;101522.28;5075237;28;20047;-68
2024/01/13 05:21:56;;;;;;;9.30;2.00;;;;;;;5.70;100.00;101536.97;5070179;28;20106;-70
2024/01/13 05:24:23;;;;;;;10.50;1.65;;;;;;;5.81;100.00;101542.13;5070340;28;20497;-70
2024/01/13 05:26:50;;;;;;;8.93;2.00;;;;;;;5.80;100.00;101538.66;5063257;28;20074;-70
2024/01/13 05:29:16;;;;;;;10.90;1.95;;;;;;;5.80;100.00;101540.41;5072292;28;20486;-68
2024/01/13 05:31:43;;;;;;;4.35;1.60;;;;;;;5.83;100.00;101541.25;5065002;28;20562;-68
2024/01/13 05:34:10;;;;;;;8.68;1.50;;;;;;;5.86;100.00;101545.53;5061896;28;20048;-68
2024/01/13 05:36:37;;;;;;;6.15;1.60;;;;;;;5.87;100.00;101532.53;5060390;28;20080;-69
2024/01/13 05:39:03;;;;;;;7.10;1.70;;;;;;;5.71;100.00;101525.72;5060182;28;20048;-69
2024/01/13 05:41:30;;;;;;;7.35;1.88;;;;;;;5.64;100.00;101527.47;5049806;28;20051;-69
2024/01/13 05:43:56;;;;;;;8.32;1.60;;;;;;;5.42;100.00;101507.63;5052918;28;20048;-69
2024/01/13 05:46:23;;;;;;;11.35;3.40;;;;;;;5.49;100.00;101523.22;5067955;28;20053;-69
2024/01/13 05:48:51;;;;;;;8.68;1.85;;;;;;;5.43;100.00;101520.63;5067395;28;20049;-69
2024/01/13 05:51:18;;;;;;;10.38;1.55;;;;;;;5.45;100.00;101523.22;5069524;28;20090;-69
2024/01/13 05:53:44;;;;;;;6.05;1.40;;;;;;;5.37;100.00;101510.28;5070212;28;20056;-68
2024/01/13 05:56:11;;;;;;;10.63;2.72;;;;;;;5.25;100.00;101495.59;5063484;28;20057;-68
2024/01/13 05:58:39;;;;;;;7.05;1.65;;;;;;;5.28;100.00;101499.94;5063885;28;20052;-69
2024/01/13 06:01:06;;;;;;;7.28;1.90;;;;;;;5.19;100.00;101487.84;5057957;28;20414;-69
2024/01/13 06:03:32;;;;;;;8.98;1.70;;;;;;;5.09;100.00;101486.97;5069245;28;20041;-69
2024/01/13 06:05:59;;;;;;;9.48;1.80;;;;;;;4.97;100.00;101476.63;5061623;28;20494;-69
2024/01/13 06:08:26;;;;;;;9.82;2.88;;;;;;;5.07;100.00;101499.09;5069105;28;20054;-69
2024/01/13 06:10:53;;;;;;;5.05;2.05;;;;;;;5.00;100.00;101489.59;5064596;28;20066;-69
2024/01/13 06:13:20;;;;;;;8.40;1.70;;;;;;;5.00;100.00;101491.34;5064313;28;20419;-69
2024/01/13 06:15:46;;;;;;;7.70;2.08;;;;;;;4.69;100.00;101455.06;5061950;28;20541;-69
2024/01/13 06:18:13;;;;;;;3.78;1.33;;;;;;;4.84;100.00;101480.13;5067230;28;20049;-68
2024/01/13 06:20:40;;;;;;;8.90;1.70;;;;;;;4.92;100.00;101487.03;5065461;28;20037;-69
2024/01/13 06:23:07;;;;;;;8.13;1.80;;;;;;;4.86;100.00;101488.78;5053042;28;20095;-69
2024/01/13 06:25:33;;;;;;;10.75;2.17;;;;;;;4.88;100.00;101494.81;5066691;28;20064;-69
2024/01/13 06:28:00;;;;;;;9.68;1.90;;;;;;;4.89;100.00;101481.84;5058403;28;20059;-69
2024/01/13 06:30:27;;;;;;;11.30;2.58;;;;;;;4.90;100.00;101485.31;5073206;28;20049;-69
2024/01/13 06:32:54;;;;;;;12.75;2.00;;;;;;;4.88;100.00;101477.50;5070407;28;20442;-69
2024/01/13 06:35:21;;;;;;;8.90;1.90;;;;;;;4.93;100.00;101472.31;5066457;28;20390;-69
2024/01/13 06:37:48;;;;;;;16.25;2.28;;;;;;;4.91;100.00;101469.72;5062768;28;20052;-69
2024/01/13 06:40:15;;;;;;;8.32;2.08;;;;;;;4.86;100.00;101463.69;5054142;28;20067;-69
2024/01/13 06:42:42;;;;;;;11.27;2.20;;;;;;;4.94;100.00;101463.69;5057808;28;20056;-69
2024/01/13 06:45:09;;;;;;;10.18;1.98;;;;;;;4.85;100.00;101471.47;5070549;28;20465;-69
2024/01/13 06:47:36;;;;;;;11.88;2.38;;;;;;;4.85;100.00;101461.97;5070357;28;20102;-69
2024/01/13 06:50:03;;;;;;;7.32;1.90;;;;;;;4.88;100.00;101443.78;5069473;28;20056;-69
2024/01/13 06:52:30;;;;;;;10.75;1.98;;;;;;;4.88;100.00;101467.13;5072453;28;20040;-70
2024/01/13 06:54:57;;;;;;;10.13;2.10;;;;;;;4.87;100.00;101464.53;5072134;28;20062;-69
2024/01/13 06:57:23;;;;;;;9.02;2.10;;;;;;;4.75;100.00;101465.44;5069141;28;20052;-69
2024/01/13 06:59:50;;;;;;;9.90;1.80;;;;;;;4.87;100.00;101461.94;5061277;28;20143;-69
2024/01/13 07:02:17;;;;;;;9.75;2.47;;;;;;;4.88;100.00;101464.53;5067801;28;20453;-69
2024/01/13 07:04:45;;;;;;;10.05;2.03;;;;;;;4.79;100.00;101453.34;5063561;28;20533;-69
2024/01/13 07:07:12;;;;;;;13.82;3.15;;;;;;;4.88;100.00;101436.00;5076889;28;20060;-69
2024/01/13 07:09:38;;;;;;;9.27;2.40;;;;;;;4.93;100.00;101454.16;5070570;28;20044;-69
2024/01/13 07:12:05;;;;;;;17.25;2.60;;;;;;;4.83;100.00;101442.94;5066831;28;20314;-70
2024/01/13 07:14:32;;;;;;;7.40;1.92;;;;;;;5.01;100.00;101444.63;5071354;28;20398;-69
2024/01/13 07:16:59;;;;;;;12.80;2.15;;;;;;;5.08;100.00;101448.03;5059084;28;20493;-69
2024/01/13 07:19:26;;;;;;;6.60;1.70;;;;;;;5.10;100.00;101447.19;5052147;28;20052;-69
2024/01/13 07:21:53;;;;;;;10.57;1.98;;;;;;;5.13;100.00;101442.00;5070012;28;20486;-69
2024/01/13 07:24:20;;;;;;;12.52;2.13;;;;;;;5.09;100.00;101442.84;5060024;28;20048;-70
2024/01/13 07:26:47;;;;;;;11.20;1.95;;;;;;;5.12;100.00;101439.41;5064503;28;20056;-69
2024/01/13 07:29:17;;;;;;;7.88;2.53;;;;;;;5.19;100.00;101437.63;5071612;28;20526;-69
2024/01/13 07:31:44;;;;;;;11.65;2.35;;;;;;;5.19;100.00;101440.22;5068630;28;20083;-69
2024/01/13 07:34:10;;;;;;;9.80;1.85;;;;;;;5.14;100.00;101429.88;5069886;28;20693;-69
2024/01/13 07:36:37;;;;;;;6.13;1.75;;;;;;;5.21;100.00;101438.50;5071485;28;20048;-69
2024/01/13 07:39:09;;;;;;;12.20;2.10;;;;;;;5.12;100.00;101435.06;5069734;28;20045;-69
2024/01/13 07:41:36;;;;;;;10.35;2.20;;;;;;;5.08;100.00;101438.56;5058174;28;20052;-69
2024/01/13 07:44:03;;;;;;;12.18;2.20;;;;;;;5.19;100.00;101446.28;5065250;28;20479;-69
2024/01/13 07:46:30;;;;;;;12.15;2.05;;;;;;;5.25;100.00;101448.00;5053862;28;20498;-69
2024/01/13 07:48:57;;;;;;;12.73;2.13;;;;;;;5.47;100.00;101439.25;5062527;28;20161;-69
2024/01/13 07:51:23;;;;;;;10.00;2.55;;;;;;;5.51;100.00;101427.97;5082732;28;20041;-69
2024/01/13 07:53:59;;;;;;;12.98;2.20;;;;;;;5.55;100.00;101421.00;5068785;28;20059;-69
2024/01/13 07:56:27;;;;;;;7.80;2.00;;;;;;;5.43;100.00;101421.94;5069871;28;21480;-69
2024/01/13 07:58:53;;;;;;;8.35;2.38;;;;;;;5.58;100.00;101409.72;5065750;28;20048;-69
2024/01/13 08:01:20;;;;;;;16.40;3.40;;;;;;;5.53;100.00;101411.50;5060519;28;20052;-69
2024/01/13 08:04:01;;;;;;;11.13;2.42;;;;;;;5.68;100.00;101421.78;5053471;28;20053;-69
2024/01/13 08:06:29;;;;;;;6.22;1.95;;;;;;;5.73;100.00;101433.00;5069771;28;20501;-69
2024/01/13 08:08:57;;;;;;;15.45;4.70;;;;;;;5.58;100.00;101443.50;5069701;28;20146;-69
2024/01/13 08:11:24;;;;;;;9.77;2.15;;;;;;;5.60;100.00;101446.97;5057203;28;20067;-69
2024/01/13 08:14:03;;;;;;;14.35;2.38;;;;;;;5.58;100.00;101443.50;5067109;28;20052;-69
2024/01/13 08:16:31;;;;;;;12.90;2.65;;;;;;;5.52;100.00;101434.00;5068121;28;20132;-69
2024/01/13 08:19:00;;;;;;;9.68;1.90;;;;;;;5.57;100.00;101436.59;5055575;28;20056;-69
2024/01/13 08:21:28;;;;;;;11.45;2.67;;;;;;;5.68;100.00;101445.16;5066412;28;20105;-69
2024/01/13 08:24:05;;;;;;;7.13;1.80;;;;;;;5.58;100.00;101440.88;5063234;28;20092;-70
2024/01/13 08:26:32;;;;;;;14.80;2.67;;;;;;;5.38;100.00;101433.22;5068072;28;20047;-70
2024/01/13 08:28:59;;;;;;;10.70;2.30;;;;;;;5.46;100.00;101441.84;5065965;28;20454;-68
2024/01/13 08:31:26;;;;;;;13.27;2.58;;;;;;;5.36;100.00;101443.59;5056964;28;20386;-68
2024/01/13 08:34:09;;;;;;;10.63;2.38;;;;;;;5.22;100.00;101435.88;5057511;28;20056;-68
2024/01/13 08:36:38;;;;;;;10.57;3.10;;;;;;;5.33;100.00;101433.25;5061571;28;20071;-68
2024/01/13 08:39:05;;;;;;;10.35;2.53;;;;;;;5.30;100.00;101417.69;5054221;28;20047;-68
2024/01/13 08:41:32;;;;;;;10.70;3.17;;;;;;;5.26;100.00;101406.44;5058156;28;20519;-68
2024/01/13 08:44:02;;;;;;;14.15;2.40;;;;;;;5.40;100.00;101415.88;5068825;28;20088;-68
2024/01/13 08:46:28;;;;;;;10.55;2.17;;;;;;;5.42;100.00;101411.53;5055110;28;20049;-69
2024/01/13 08:48:55;;;;;;;10.75;2.30;;;;;;;5.31;100.00;101411.59;5056939;28;20480;-68
2024/01/13 08:51:23;;;;;;;10.75;2.05;;;;;;;5.42;100.00;101409.81;5062505;28;20347;-68
2024/01/13 08:54:05;;;;;;;7.20;1.92;;;;;;;5.41;100.00;101409.84;5070395;28;20051;-68
2024/01/13 08:56:36;;;;;;;14.80;3.03;;;;;;;5.23;100.00;101416.00;5058524;28;20049;-68
2024/01/13 08:59:05;;;;;;;12.93;2.67;;;;;;;5.21;100.00;101395.22;5069866;28;20048;-68
2024/01/13 09:01:32;;;;;;;10.63;2.40;;;;;;;5.42;100.00;101394.25;5070984;28;20037;-68
2024/01/13 09:04:05;;;;;;;12.45;2.47;;;;;;;5.56;100.00;101401.97;5056672;28;20129;-68
2024/01/13 09:06:32;;;;;;;11.32;3.47;;;;;;;5.63;100.00;101407.97;5062540;28;20048;-68
2024/01/13 09:08:59;;;;;;;9.82;2.42;;;;;;;5.65;100.00;101395.84;5061133;28;20056;-68
2024/01/13 09:11:26;;;;;;;8.98;2.30;;;;;;;5.75;100.00;101399.22;5060887;28;20051;-68
2024/01/13 09:14:07;;;;;;;18.05;3.17;;;;;;;5.63;100.00;101395.84;5067804;28;20050;-68
2024/01/13 09:16:34;;;;;;;11.98;2.60;;;;;;;5.38;100.00;101384.72;5060627;28;20056;-68
2024/01/13 09:19:00;;;;;;;10.35;2.28;;;;;;;5.37;100.00;101375.22;5063315;28;20398;-68
2024/01/13 09:21:28;;;;;;;11.38;2.47;;;;;;;5.52;100.00;101382.06;5067422;28;20095;-68
2024/01/13 09:24:07;;;;;;;9.63;2.10;;;;;;;5.61;100.00;101382.00;5059867;28;20048;-68
2024/01/13 09:26:42;;;;;;;11.13;2.42;;;;;;;5.53;100.00;101389.00;5057148;28;20048;-68
2024/01/13 09:29:12;;;;;;;10.93;2.45;;;;;;;5.33;100.00;101387.38;5072427;28;20040;-68
2024/01/13 09:31:39;;;;;;;11.55;2.50;;;;;;;5.42;100.00;101380.38;5056636;28;20511;-68
2024/01/13 09:34:09;;;;;;;9.02;1.98;;;;;;;5.38;100.00;101394.25;5061379;28;20053;-68
2024/01/13 09:36:38;;;;;;;14.32;2.65;;;;;;;5.48;100.00;101389.00;5067872;28;20048;-68
2024/01/13 09:39:05;;;;;;;9.52;2.47;;;;;;;5.52;100.00;101382.06;5065744;28;20051;-68
2024/01/13 09:41:33;;;;;;;11.93;2.20;;;;;;;5.64;100.00;101387.16;5057382;28;20471;-68
2024/01/13 09:44:22;;;;;;;12.10;4.18;;;;;;;5.68;100.00;101391.50;5050068;28;20049;-68
2024/01/13 09:46:51;;;;;;;11.88;2.78;;;;;;;5.55;100.00;101394.19;5056722;28;20489;-68
2024/01/13 09:49:20;;;;;;;10.93;2.22;;;;;;;5.61;100.00;101389.81;5068842;28;20102;-68
2024/01/13 09:51:48;;;;;;;14.98;2.63;;;;;;;5.43;100.00;101376.91;5069140;28;20474;-68
2024/01/13 09:54:25;;;;;;;7.18;2.00;;;;;;;5.64;100.00;101376.78;5059893;28;20139;-68
2024/01/13 09:56:53;;;;;;;8.07;2.13;;;;;;;5.69;100.00;101371.56;5066014;28;20057;-68
2024/01/13 09:59:22;;;;;;;8.75;2.10;;;;;;;5.81;100.00;101370.63;5057852;28;20052;-68
2024/01/13 10:01:49;;;;;;;12.10;2.50;;;;;;;5.59;100.00;101362.94;5066326;28;20080;-68
2024/01/13 10:04:16;;;;;;;9.93;1.98;;;;;;;5.69;100.00;101351.63;5068492;28;20044;-68
2024/01/13 10:06:45;;;;;;;13.43;3.10;;;;;;;5.72;100.00;101353.34;5059458;28;20048;-68
2024/01/13 10:09:12;;;;;;;12.48;2.42;;;;;;;5.70;100.00;101350.78;5054978;28;20088;-68
2024/01/13 10:11:59;;;;;;;10.10;2.42;;;;;;;5.64;100.00;101363.78;5046979;28;20056;-68
2024/01/13 10:14:26;;;;;;;14.15;2.58;;;;;;;5.57;100.00;101356.06;5065992;28;20040;-68
2024/01/13 10:16:53;;;;;;;14.23;2.60;;;;;;;5.74;100.00;101351.59;5062722;28;20052;-68
2024/01/13 10:19:24;;;;;;;10.80;2.40;;;;;;;5.82;100.00;101354.13;5065874;28;20049;-68
2024/01/13 10:21:56;;;;;;;11.25;2.65;;;;;;;5.85;100.00;101359.31;5059388;28;20125;-68
2024/01/13 10:24:22;;;;;;;13.02;2.60;;;;;;;5.68;100.00;101355.13;5069318;28;20086;-68
2024/01/13 10:26:49;;;;;;;13.23;3.22;;;;;;;5.63;100.00;101341.28;5064474;28;20084;-68
2024/01/13 10:29:19;;;;;;;10.85;2.58;;;;;;;5.80;100.00;101353.28;5063191;28;20048;-68
2024/01/13 10:31:53;;;;;;;10.77;2.00;;;;;;;5.82;100.00;101352.38;5059918;28;20056;-68
2024/01/13 10:34:20;;;;;;;8.82;2.22;;;;;;;5.92;100.00;101360.13;5053320;28;20136;-69
2024/01/13 10:36:48;;;;;;;9.07;2.38;;;;;;;5.97;100.00;101353.19;5056513;28;20391;-68
2024/01/13 10:39:15;;;;;;;8.35;1.85;;;;;;;5.99;100.00;101357.50;5061512;28;20049;-68
2024/01/13 10:41:46;;;;;;;14.00;3.40;;;;;;;6.01;100.00;101354.88;5062115;28;20037;-68
2024/01/13 10:44:16;;;;;;;10.18;2.10;;;;;;;5.79;100.00;101349.84;5071940;28;20437;-68
2024/01/13 10:46:49;;;;;;;9.40;2.13;;;;;;;5.86;100.00;101351.50;5063924;28;20060;-69
2024/01/13 10:49:28;;;;;;;10.73;3.15;;;;;;;5.92;100.00;101345.38;5068599;28;20048;-68
2024/01/13 10:51:59;;;;;;;17.60;2.58;;;;;;;5.94;100.00;101342.78;5060509;28;20135;-68
2024/01/13 10:54:29;;;;;;;9.75;1.95;;;;;;;6.15;100.00;101346.97;5053080;28;20059;-68
2024/01/13 10:56:57;;;;;;;11.65;2.70;;;;;;;5.86;100.00;101346.31;5065223;28;20469;-68
2024/01/13 10:59:28;;;;;;;9.52;2.17;;;;;;;5.87;100.00;101326.38;5068456;28;20048;-68
2024/01/13 11:01:56;;;;;;;14.10;2.92;;;;;;;5.82;100.00;101309.94;5071806;28;20553;-68
2024/01/13 11:04:23;;;;;;;12.05;2.63;;;;;;;5.87;100.00;101326.38;5071182;28;20509;-68
2024/01/13 11:06:51;;;;;;;13.77;4.22;;;;;;;5.91;100.00;101328.06;5069123;28;20049;-68
2024/01/13 11:09:21;;;;;;;11.50;2.55;;;;;;;6.07;100.00;101319.28;5065048;28;20510;-68
2024/01/13 11:12:01;;;;;;;21.90;3.00;;;;;;;6.08;100.00;101313.19;5051768;28;20049;-69
2024/01/13 11:14:37;;;;;;;14.85;2.10;;;;;;;5.81;100.00;101316.91;5060336;28;20077;-68
2024/01/13 11:17:06;;;;;;;15.50;2.45;;;;;;;5.99;100.00;101299.44;5064641;28;20106;-68
2024/01/13 11:19:35;;;;;;;9.23;2.17;;;;;;;6.16;100.00;101307.94;5059287;28;20083;-68
2024/01/13 11:22:37;;;;;;;8.98;2.40;;;;;;;6.13;100.00;101313.16;5060257;28;20047;-69
2024/01/13 11:25:22;;;;;;;11.32;2.17;;;;;;;6.22;100.00;101309.63;5070301;28;20154;-69
2024/01/13 11:28:13;;;;;;;10.27;2.65;;;;;;;6.15;100.00;101314.00;5064391;28;20498;-69
2024/01/13 11:30:40;;;;;;;12.30;2.65;;;;;;;6.11;100.00;101308.84;5059756;28;20056;-69